Amity, Georgia
Current Conditions -  °F | °C
As of 4:15 PM on Friday 28 Nov 2014 (Local Time) from KHQU Reporting Station
Clear Clear  
Wind Chill: 51°   Ceiling: Unl
Heat Index: 51°   Visibility: 10mi
Dew Point: 31°   Wind: 3mph
Humidity: 47%   Direction: 270°W
Pressure: 30.35"   Gusts: NA
Location:  33.7816°N, 82.4511°W
Report Text: KHQU 282115Z AUTO 27003KT 10SM CLR 10/M01 A3035 RMK AO1 T01031007
Loading
Personal Weather Stations






























Interactive Weather Map New forecast layout! Learn more

10-Day Weather Forecast

Advertisements
Track Severe Weather on mobile